createdAt,value
2022-11-13T00:00:44.571Z,-90.00
2022-11-13T00:00:54.709Z,-87.00
2022-11-13T00:01:54.964Z,-89.00
2022-11-13T00:02:56.467Z,-88.00
2022-11-13T00:03:55.886Z,-88.00
2022-11-13T00:04:56.049Z,-89.00
2022-11-13T00:05:57.438Z,-88.00
2022-11-13T00:06:59.366Z,-88.00
2022-11-13T00:07:57.636Z,-88.00
2022-11-13T00:08:58.843Z,-89.00
2022-11-13T00:09:58.176Z,-87.00
2022-11-13T00:10:58.723Z,-89.00
2022-11-13T00:11:59.236Z,-88.00
2022-11-13T00:13:00.621Z,-89.00
2022-11-13T00:14:01.194Z,-88.00
2022-11-13T00:15:00.556Z,-88.00
2022-11-13T00:16:01.977Z,-87.00
2022-11-13T00:17:03.167Z,-87.00
2022-11-13T00:18:02.789Z,-86.00
2022-11-13T00:19:03.424Z,-87.00
2022-11-13T00:20:06.788Z,-86.00
2022-11-13T00:21:04.655Z,-86.00
2022-11-13T00:21:14.554Z,-87.00
2022-11-13T00:22:14.674Z,-87.00
2022-11-13T00:23:15.444Z,-88.00
2022-11-13T00:24:16.311Z,-87.00
2022-11-13T00:25:16.729Z,-88.00
2022-11-13T00:26:17.341Z,-87.00
2022-11-13T11:40:48.044Z,-90.00
2022-11-13T11:41:48.149Z,-89.00
2022-11-13T11:42:48.999Z,-88.00
2022-11-13T11:43:50.387Z,-91.00
2022-11-13T11:44:50.216Z,-89.00
2022-11-13T11:45:50.812Z,-89.00
2022-11-13T11:46:51.102Z,-90.00
2022-11-13T11:47:51.960Z,-90.00
2022-11-13T11:48:52.891Z,-90.00
2022-11-13T11:49:54.027Z,-91.00
2022-11-13T11:50:53.798Z,-90.00
2022-11-13T11:51:54.519Z,-90.00
2022-11-13T11:52:54.833Z,-92.00
2022-11-13T11:53:56.010Z,-88.00
2022-11-13T11:54:09.023Z,-89.00
2022-11-13T11:55:07.914Z,-89.00
2022-11-13T11:56:08.332Z,-88.00
2022-11-13T11:57:09.042Z,-90.00
2022-11-13T11:58:09.779Z,-90.00
2022-11-13T11:59:10.110Z,-90.00
2022-11-13T12:00:10.751Z,-89.00
2022-11-13T12:01:11.309Z,-90.00
2022-11-13T12:02:11.378Z,-91.00
2022-11-13T12:03:13.119Z,-92.00
2022-11-13T12:04:13.059Z,-91.00
2022-11-13T12:05:19.540Z,-92.00
2022-11-13T12:06:14.074Z,-90.00
2022-11-13T12:07:16.090Z,-90.00
2022-11-13T12:08:15.734Z,-90.00
2022-11-13T12:09:16.075Z,-92.00
2022-11-13T12:10:16.744Z,-90.00
2022-11-13T12:11:17.490Z,-92.00
2022-11-13T12:12:17.627Z,-90.00
2022-11-13T12:13:18.507Z,-92.00
2022-11-13T12:14:19.409Z,-90.00
2022-11-13T12:15:19.727Z,-92.00
2022-11-13T12:16:24.810Z,-91.00
2022-11-13T12:17:20.566Z,-91.00
2022-11-13T12:18:21.359Z,-91.00
2022-11-13T12:19:22.464Z,-91.00
2022-11-13T12:20:22.442Z,-91.00
2022-11-13T12:21:24.211Z,-92.00
2022-11-13T12:22:28.254Z,-88.00
2022-11-13T12:22:39.137Z,-89.00
2022-11-13T12:23:38.492Z,-88.00
2022-11-13T12:24:39.277Z,-88.00
2022-11-13T12:25:40.507Z,-91.00
2022-11-13T12:26:39.842Z,-90.00
2022-11-13T12:27:39.930Z,-88.00
2022-11-13T12:28:41.312Z,-89.00
2022-11-13T12:29:41.248Z,-88.00
2022-11-13T12:30:41.540Z,-90.00
2022-11-13T12:31:42.448Z,-90.00
2022-11-13T12:32:42.447Z,-90.00
2022-11-13T12:33:43.332Z,-90.00
2022-11-13T12:34:43.573Z,-90.00
2022-11-13T12:35:43.770Z,-90.00
2022-11-13T12:36:43.969Z,-89.00
2022-11-13T12:37:44.906Z,-90.00
2022-11-13T12:38:45.111Z,-89.00
2022-11-13T12:39:45.880Z,-89.00
2022-11-13T12:40:46.732Z,-90.00
2022-11-13T12:41:47.613Z,-89.00
2022-11-13T12:42:48.372Z,-89.00
2022-11-13T12:43:48.759Z,-87.00
2022-11-13T12:44:49.968Z,-89.00
2022-11-13T12:45:49.510Z,-86.00
2022-11-13T12:46:50.017Z,-88.00
2022-11-13T12:47:50.601Z,-89.00
2022-11-13T12:48:51.105Z,-86.00
2022-11-13T12:49:51.313Z,-89.00
2022-11-13T12:50:51.484Z,-88.00
2022-11-13T12:51:05.479Z,-89.00
2022-11-13T12:52:05.686Z,-89.00
2022-11-13T12:53:06.378Z,-89.00
2022-11-13T12:54:07.087Z,-88.00
2022-11-13T12:55:07.615Z,-90.00
2022-11-13T12:56:08.435Z,-88.00
2022-11-13T12:57:09.424Z,-89.00
2022-11-13T12:58:09.893Z,-88.00
2022-11-13T12:59:29.882Z,-89.00
2022-11-13T13:00:10.874Z,-91.00
2022-11-13T13:01:11.661Z,-91.00
2022-11-13T13:02:12.205Z,-90.00
2022-11-13T13:03:13.242Z,-89.00
2022-11-13T13:04:13.007Z,-89.00
2022-11-13T13:04:29.280Z,-90.00
2022-11-13T13:05:29.497Z,-90.00
2022-11-13T13:06:30.379Z,-89.00
2022-11-13T13:07:30.652Z,-87.00
2022-11-13T13:08:31.190Z,-90.00
2022-11-13T13:09:30.961Z,-89.00
2022-11-13T13:10:31.910Z,-88.00
2022-11-13T13:11:32.692Z,-89.00
2022-11-13T13:12:33.815Z,-90.00
2022-11-13T13:13:34.190Z,-89.00
2022-11-13T13:14:34.963Z,-88.00
2022-11-13T13:15:35.914Z,-90.00
2022-11-13T13:16:37.491Z,-90.00
2022-11-13T13:17:37.491Z,-87.00
2022-11-13T13:18:37.556Z,-89.00
2022-11-13T13:19:39.356Z,-90.00
2022-11-13T13:20:39.172Z,-90.00
2022-11-13T13:21:40.038Z,-89.00
2022-11-13T13:21:47.952Z,-88.00
2022-11-13T13:22:48.079Z,-88.00
2022-11-13T13:23:48.891Z,-89.00
2022-11-13T13:24:50.707Z,-86.00
2022-11-13T13:25:50.588Z,-88.00
2022-11-13T13:26:51.183Z,-90.00
2022-11-13T13:27:51.506Z,-89.00
2022-11-13T13:28:51.414Z,-89.00
2022-11-13T13:29:52.024Z,-90.00
2022-11-13T13:30:52.543Z,-90.00
2022-11-13T13:31:54.382Z,-89.00
2022-11-13T13:32:53.468Z,-88.00
2022-11-13T13:33:55.289Z,-86.00
2022-11-13T13:34:54.390Z,-90.00
2022-11-13T13:35:55.146Z,-90.00
2022-11-13T13:36:55.685Z,-88.00
2022-11-13T13:37:56.524Z,-90.00
2022-11-13T13:38:56.925Z,-89.00
2022-11-13T13:39:57.869Z,-91.00
2022-11-13T13:40:57.924Z,-86.00
2022-11-13T13:41:07.121Z,-90.00
2022-11-13T13:42:07.927Z,-90.00
2022-11-13T13:43:08.979Z,-90.00
2022-11-13T13:44:09.864Z,-89.00
2022-11-13T13:45:11.836Z,-89.00
2022-11-13T13:46:12.437Z,-89.00
2022-11-13T13:47:12.407Z,-89.00
2022-11-13T13:48:13.236Z,-89.00
2022-11-13T13:49:14.163Z,-90.00
2022-11-13T13:50:14.961Z,-89.00
2022-11-13T13:51:16.041Z,-86.00
2022-11-13T13:52:16.619Z,-87.00
2022-11-13T13:53:16.590Z,-88.00
2022-11-13T13:54:16.737Z,-87.00
2022-11-13T13:55:16.239Z,-88.00
2022-11-13T13:56:16.306Z,-86.00
2022-11-13T13:57:18.192Z,-88.00
2022-11-13T13:58:19.237Z,-88.00
2022-11-13T13:59:18.328Z,-88.00
2022-11-13T14:00:19.258Z,-89.00
2022-11-13T14:01:20.452Z,-89.00
2022-11-13T14:02:20.835Z,-89.00
2022-11-13T14:03:20.744Z,-90.00
2022-11-13T14:04:21.152Z,-89.00
2022-11-13T14:05:21.317Z,-90.00
2022-11-13T14:06:22.697Z,-87.00
2022-11-13T14:06:34.813Z,-88.00
2022-11-13T14:07:35.590Z,-89.00
2022-11-13T14:08:36.329Z,-90.00
2022-11-13T14:09:36.437Z,-91.00
2022-11-13T14:10:37.247Z,-94.00
2022-11-13T14:11:38.554Z,-93.00
2022-11-13T14:12:37.736Z,-92.00
2022-11-13T14:13:39.387Z,-92.00
2022-11-13T14:14:38.731Z,-92.00
2022-11-13T14:15:39.674Z,-91.00
2022-11-13T14:16:40.277Z,-89.00
2022-11-13T14:17:41.027Z,-89.00
2022-11-13T14:18:41.248Z,-89.00
2022-11-13T14:19:43.195Z,-92.00
2022-11-13T14:20:43.079Z,-89.00
2022-11-13T14:21:43.950Z,-91.00
2022-11-13T14:22:44.075Z,-88.00
2022-11-13T14:23:44.474Z,-90.00
2022-11-13T14:24:46.184Z,-89.00
2022-11-13T14:25:45.400Z,-90.00
2022-11-13T14:26:45.722Z,-91.00
2022-11-13T14:27:46.448Z,-87.00
2022-11-13T14:28:53.146Z,-91.00
2022-11-13T14:29:48.292Z,-88.00
2022-11-13T14:30:49.548Z,-90.00
2022-11-13T14:31:48.551Z,-90.00
2022-11-13T14:32:50.240Z,-90.00
2022-11-13T14:32:58.864Z,-87.00
2022-11-13T14:33:59.114Z,-90.00
2022-11-13T14:35:00.012Z,-88.00
2022-11-13T14:36:01.175Z,-90.00
2022-11-13T14:37:01.850Z,-91.00
2022-11-13T14:38:01.940Z,-89.00
2022-11-13T14:39:01.735Z,-92.00
2022-11-13T14:40:03.383Z,-90.00
2022-11-13T14:41:02.861Z,-91.00
2022-11-13T14:42:03.234Z,-91.00
2022-11-13T14:43:03.839Z,-90.00
2022-11-13T14:44:05.346Z,-91.00
2022-11-13T14:45:04.834Z,-91.00
2022-11-13T14:46:06.133Z,-90.00
2022-11-13T14:47:06.897Z,-90.00
2022-11-13T14:48:06.332Z,-91.00
2022-11-13T14:49:06.773Z,-90.00
2022-11-13T14:50:07.216Z,-90.00
2022-11-13T14:51:08.918Z,-89.00
2022-11-13T14:52:08.196Z,-90.00
2022-11-13T14:53:08.771Z,-90.00
2022-11-13T14:54:09.255Z,-91.00
2022-11-13T14:55:15.214Z,-90.00
2022-11-13T14:56:09.604Z,-88.00
2022-11-13T14:56:19.253Z,-90.00
2022-11-13T14:57:19.704Z,-94.00
2022-11-13T14:58:20.047Z,-90.00
2022-11-13T14:59:21.435Z,-90.00
2022-11-13T15:00:21.714Z,-90.00
2022-11-13T15:01:20.903Z,-89.00
2022-11-13T15:02:21.071Z,-92.00
2022-11-13T15:03:22.097Z,-90.00
2022-11-13T15:04:22.747Z,-90.00
2022-11-13T15:05:24.140Z,-91.00
2022-11-13T15:06:23.646Z,-89.00
2022-11-13T15:07:25.007Z,-90.00
2022-11-13T15:08:24.308Z,-92.00
2022-11-13T15:09:24.622Z,-92.00
2022-11-13T15:10:25.398Z,-91.00
2022-11-13T15:11:25.957Z,-92.00
2022-11-13T15:12:26.391Z,-92.00
2022-11-13T15:13:27.097Z,-92.00
2022-11-13T15:14:27.212Z,-91.00
2022-11-13T15:15:27.597Z,-91.00
2022-11-13T15:16:28.033Z,-89.00
2022-11-13T15:17:28.344Z,-90.00
2022-11-13T15:18:29.758Z,-88.00
2022-11-13T15:19:30.512Z,-92.00
2022-11-13T15:20:31.135Z,-88.00
2022-11-13T15:21:31.056Z,-93.00
2022-11-13T15:22:32.420Z,-92.00
2022-11-13T15:22:42.102Z,-92.00
2022-11-13T15:23:41.824Z,-91.00
2022-11-13T15:24:42.401Z,-89.00
2022-11-13T15:25:45.101Z,-93.00
2022-11-13T15:26:43.819Z,-88.00
2022-11-13T15:27:43.936Z,-91.00
2022-11-13T15:28:45.243Z,-92.00
2022-11-13T15:29:45.652Z,-92.00
2022-11-13T15:30:44.892Z,-91.00
2022-11-13T15:31:46.178Z,-92.00
2022-11-13T15:32:45.492Z,-92.00
2022-11-13T15:33:46.863Z,-91.00
2022-11-13T15:34:46.208Z,-91.00
2022-11-13T15:35:46.652Z,-92.00
2022-11-13T15:36:47.541Z,-91.00
2022-11-13T15:37:48.177Z,-91.00
2022-11-13T15:38:49.695Z,-92.00
2022-11-13T15:39:49.511Z,-90.00
2022-11-13T15:40:51.361Z,-93.00
2022-11-13T15:41:50.923Z,-92.00
2022-11-13T15:42:51.615Z,-92.00
2022-11-13T15:43:52.457Z,-91.00
2022-11-13T15:44:52.794Z,-92.00
2022-11-13T15:45:53.316Z,-91.00
2022-11-13T15:46:55.097Z,-92.00
2022-11-13T15:47:04.292Z,-90.00
2022-11-13T15:48:04.865Z,-92.00
2022-11-13T15:49:05.364Z,-91.00
2022-11-13T15:50:14.868Z,-92.00
2022-11-13T15:51:06.692Z,-92.00
2022-11-13T15:52:08.757Z,-90.00
2022-11-13T15:53:08.380Z,-92.00
2022-11-13T15:54:08.540Z,-93.00
2022-11-13T15:55:09.470Z,-90.00
2022-11-13T15:56:12.143Z,-89.00
2022-11-13T15:57:11.035Z,-89.00
2022-11-13T15:58:12.848Z,-88.00
2022-11-13T15:59:13.772Z,-90.00
2022-11-13T16:00:13.663Z,-90.00
2022-11-13T16:01:13.772Z,-90.00
2022-11-13T16:02:13.722Z,-92.00
2022-11-13T16:03:14.147Z,-92.00
2022-11-13T16:04:14.293Z,-92.00
2022-11-13T16:05:15.546Z,-93.00
2022-11-13T16:06:15.457Z,-91.00
2022-11-13T16:07:15.872Z,-91.00
2022-11-13T16:08:16.269Z,-93.00
2022-11-13T16:09:16.679Z,-91.00
2022-11-13T16:10:17.496Z,-91.00
2022-11-13T16:11:19.341Z,-91.00
2022-11-13T16:11:29.871Z,-92.00
2022-11-13T16:12:30.641Z,-90.00
2022-11-13T16:13:31.149Z,-90.00
2022-11-13T16:14:31.500Z,-92.00
2022-11-13T16:15:32.367Z,-92.00
2022-11-13T16:16:32.668Z,-92.00
2022-11-13T16:17:32.741Z,-91.00
2022-11-13T16:18:32.907Z,-91.00
2022-11-13T16:19:33.595Z,-92.00
2022-11-13T16:20:34.484Z,-88.00
2022-11-13T16:21:35.412Z,-91.00
2022-11-13T16:22:37.350Z,-91.00
2022-11-13T16:23:37.237Z,-91.00
2022-11-13T16:24:37.895Z,-92.00
2022-11-13T16:25:37.877Z,-91.00
2022-11-13T16:26:37.974Z,-92.00
2022-11-13T16:27:37.957Z,-89.00
2022-11-13T16:29:07.232Z,-91.00
2022-11-13T16:29:38.987Z,-90.00
2022-11-13T16:30:39.746Z,-92.00
2022-11-13T16:31:41.649Z,-90.00
2022-11-13T16:32:41.508Z,-93.00
2022-11-13T16:33:44.355Z,-93.00
2022-11-13T16:34:42.343Z,-89.00
2022-11-13T16:35:43.556Z,-89.00
2022-11-13T16:36:43.436Z,-88.00
2022-11-13T16:37:43.750Z,-90.00
2022-11-13T16:38:44.070Z,-89.00
2022-11-13T16:39:44.181Z,-88.00
2022-11-13T16:39:52.828Z,-92.00
2022-11-13T16:40:53.012Z,-88.00
2022-11-13T16:41:53.728Z,-90.00
2022-11-13T16:42:55.235Z,-89.00
2022-11-13T16:43:54.633Z,-89.00
2022-11-13T16:44:56.521Z,-89.00
2022-11-13T16:45:55.788Z,-90.00
2022-11-13T16:46:56.421Z,-90.00
2022-11-13T16:47:56.481Z,-88.00
2022-11-13T16:48:57.519Z,-88.00
2022-11-13T16:49:57.449Z,-88.00
2022-11-13T16:50:58.154Z,-89.00
2022-11-13T16:51:58.619Z,-88.00
2022-11-13T16:52:58.671Z,-90.00
2022-11-13T16:53:59.841Z,-91.00
2022-11-13T16:55:03.684Z,-89.00
2022-11-13T16:56:00.367Z,-87.00
2022-11-13T16:57:00.659Z,-92.00
2022-11-13T16:58:01.982Z,-89.00
2022-11-13T16:59:01.000Z,-89.00
2022-11-13T17:00:01.026Z,-90.00
2022-11-13T17:01:01.197Z,-90.00
2022-11-13T17:02:01.221Z,-90.00
2022-11-13T17:03:01.378Z,-90.00
2022-11-13T17:04:02.519Z,-90.00
2022-11-13T17:04:12.136Z,-89.00
2022-11-13T17:05:12.335Z,-91.00
2022-11-13T17:06:12.571Z,-91.00
2022-11-13T17:07:13.722Z,-90.00
2022-11-13T17:08:12.770Z,-85.00
2022-11-13T17:09:12.938Z,-87.00
2022-11-13T17:11:13.792Z,-87.00
2022-11-13T17:12:17.983Z,-89.00
2022-11-13T17:13:15.229Z,-89.00
2022-11-13T17:14:16.107Z,-88.00
2022-11-13T17:15:16.245Z,-87.00
2022-11-13T17:16:17.337Z,-88.00
2022-11-13T17:17:17.362Z,-86.00
2022-11-13T17:18:18.251Z,-90.00
2022-11-13T17:19:19.083Z,-87.00
2022-11-13T17:20:19.909Z,-85.00
2022-11-13T17:20:38.879Z,-89.00
2022-11-13T17:21:43.894Z,-89.00
2022-11-13T17:22:39.473Z,-89.00
2022-11-13T17:23:40.871Z,-87.00
2022-11-13T17:24:40.697Z,-87.00
2022-11-13T17:25:41.647Z,-90.00
2022-11-13T17:26:42.874Z,-89.00
2022-11-13T17:27:42.779Z,-90.00
2022-11-13T17:28:43.034Z,-88.00
2022-11-13T17:29:46.900Z,-88.00
2022-11-13T17:30:44.376Z,-90.00
2022-11-13T17:31:44.496Z,-89.00
2022-11-13T17:32:45.363Z,-89.00
2022-11-13T17:33:46.272Z,-88.00
2022-11-13T17:34:12.821Z,-88.00
2022-11-13T17:35:12.619Z,-89.00
2022-11-13T17:36:13.537Z,-89.00
2022-11-13T17:37:14.497Z,-89.00
2022-11-13T17:38:14.677Z,-90.00
2022-11-13T17:39:18.247Z,-88.00
2022-11-13T17:40:16.490Z,-90.00
2022-11-13T17:41:18.873Z,-89.00
2022-11-13T17:42:18.587Z,-90.00
2022-11-13T17:43:18.515Z,-91.00
2022-11-13T17:44:18.538Z,-89.00
2022-11-13T17:45:19.396Z,-90.00
2022-11-13T17:46:20.173Z,-91.00
2022-11-13T17:47:21.184Z,-89.00
2022-11-13T17:48:20.986Z,-90.00
2022-11-13T17:49:21.883Z,-86.00
2022-11-13T17:50:22.824Z,-89.00
2022-11-13T17:50:48.397Z,-88.00
2022-11-13T17:51:45.659Z,-89.00
2022-11-13T17:52:46.712Z,-89.00
2022-11-13T17:53:48.977Z,-90.00
2022-11-13T17:54:47.734Z,-91.00
2022-11-13T17:55:48.617Z,-89.00
2022-11-13T17:56:49.569Z,-89.00
2022-11-13T17:57:51.043Z,-90.00
2022-11-13T17:58:49.992Z,-88.00
2022-11-13T17:59:50.154Z,-89.00
2022-11-13T18:00:50.413Z,-89.00
2022-11-13T18:01:53.018Z,-90.00
2022-11-13T18:02:59.543Z,-87.00
2022-11-13T18:03:52.535Z,-90.00
2022-11-13T18:04:52.449Z,-89.00
2022-11-13T18:05:52.600Z,-89.00
2022-11-13T18:06:57.216Z,-87.00
2022-11-13T18:07:54.110Z,-89.00
2022-11-13T18:08:54.997Z,-89.00
2022-11-13T18:09:58.180Z,-90.00
2022-11-13T18:10:56.437Z,-90.00
2022-11-13T18:11:56.471Z,-90.00
2022-11-13T18:13:05.707Z,-89.00
2022-11-13T18:13:56.754Z,-90.00
2022-11-13T18:14:44.308Z,-90.00
2022-11-13T18:15:45.162Z,-91.00
2022-11-13T18:16:46.140Z,-90.00
2022-11-13T18:17:46.987Z,-90.00
2022-11-13T18:18:48.190Z,-90.00
2022-11-13T18:19:48.202Z,-90.00
2022-11-13T18:20:48.163Z,-90.00
2022-11-13T18:21:48.284Z,-90.00
2022-11-13T18:22:49.145Z,-90.00
2022-11-13T18:23:50.141Z,-90.00
2022-11-13T18:24:50.180Z,-90.00
2022-11-13T18:25:50.932Z,-88.00
2022-11-13T18:26:16.677Z,-89.00
2022-11-13T18:27:14.643Z,-87.00
2022-11-13T18:28:15.456Z,-89.00
2022-11-13T18:29:16.307Z,-89.00
2022-11-13T18:30:17.878Z,-89.00
2022-11-13T18:31:24.733Z,-89.00
2022-11-13T18:32:18.213Z,-88.00
2022-11-13T18:33:19.060Z,-89.00
2022-11-13T18:34:19.661Z,-90.00
2022-11-13T18:35:19.793Z,-88.00
2022-11-13T18:36:20.855Z,-89.00
2022-11-13T18:37:19.747Z,-88.00
2022-11-13T18:38:19.833Z,-89.00
2022-11-13T18:39:22.880Z,-88.00
2022-11-13T18:40:22.823Z,-88.00
2022-11-13T18:40:41.001Z,-88.00
2022-11-13T18:41:38.741Z,-90.00
2022-11-13T18:42:41.612Z,-88.00
2022-11-13T18:43:39.974Z,-88.00
2022-11-13T18:44:40.870Z,-88.00
2022-11-13T18:45:40.977Z,-87.00
2022-11-13T18:46:40.850Z,-88.00
2022-11-13T18:47:41.691Z,-90.00
2022-11-13T18:48:44.667Z,-87.00
2022-11-13T18:49:43.479Z,-88.00
2022-11-13T18:50:44.260Z,-88.00
2022-11-13T18:51:47.846Z,-90.00
2022-11-13T18:52:38.478Z,-90.00
2022-11-13T18:53:35.372Z,-90.00
2022-11-13T18:54:36.078Z,-88.00
2022-11-13T18:55:38.829Z,-89.00
2022-11-13T18:56:37.616Z,-87.00
2022-11-13T18:57:38.459Z,-88.00
2022-11-13T18:58:42.467Z,-87.00
2022-11-13T18:59:39.810Z,-89.00
2022-11-13T19:00:40.566Z,-88.00
2022-11-13T19:01:42.280Z,-88.00
2022-11-13T19:02:42.166Z,-90.00
2022-11-13T19:04:42.233Z,-87.00
2022-11-13T19:05:42.806Z,-90.00
2022-11-13T19:06:45.233Z,-87.00
2022-11-13T19:07:45.833Z,-88.00
2022-11-13T19:08:44.584Z,-88.00
2022-11-13T19:09:02.782Z,-87.00
2022-11-13T19:10:01.724Z,-87.00
2022-11-13T19:11:02.115Z,-88.00
2022-11-13T19:12:02.736Z,-88.00
2022-11-13T19:13:05.979Z,-87.00
2022-11-13T19:17:29.765Z,-86.00
2022-11-13T19:18:24.496Z,-89.00
2022-11-13T19:19:24.886Z,-88.00
2022-11-13T19:20:25.490Z,-86.00
2022-11-13T19:21:26.642Z,-86.00
2022-11-13T19:22:29.327Z,-86.00
2022-11-13T19:23:29.683Z,-85.00
2022-11-13T19:24:28.125Z,-85.00
2022-11-13T19:25:29.526Z,-86.00
2022-11-13T19:26:29.429Z,-88.00
2022-11-13T19:27:30.301Z,-86.00
2022-11-13T19:28:30.893Z,-88.00
2022-11-13T19:29:38.176Z,-88.00
2022-11-13T19:30:33.098Z,-87.00
2022-11-13T19:31:31.918Z,-88.00
2022-11-13T19:32:41.282Z,-89.00
2022-11-13T19:32:53.085Z,-87.00
2022-11-13T19:34:11.735Z,-87.00
2022-11-13T19:34:55.146Z,-88.00
2022-11-13T19:35:57.920Z,-87.00
2022-11-13T19:36:55.745Z,-88.00
2022-11-13T19:37:56.294Z,-88.00
2022-11-13T19:38:57.096Z,-87.00
2022-11-13T19:39:57.872Z,-87.00
2022-11-13T19:40:58.778Z,-89.00
2022-11-13T19:41:59.401Z,-89.00
2022-11-13T19:43:02.315Z,-89.00
2022-11-13T19:44:04.248Z,-88.00
2022-11-13T19:45:01.166Z,-89.00
2022-11-13T19:46:02.018Z,-89.00
2022-11-13T19:46:24.092Z,-90.00
2022-11-13T19:47:23.808Z,-88.00
2022-11-13T19:48:21.908Z,-90.00
2022-11-13T19:49:22.449Z,-89.00
2022-11-13T19:50:22.954Z,-92.00
2022-11-13T19:51:25.994Z,-86.00
2022-11-13T19:52:24.231Z,-85.00
2022-11-13T19:53:24.223Z,-86.00
2022-11-13T19:54:25.052Z,-86.00
2022-11-13T19:55:25.964Z,-84.00
2022-11-13T19:56:26.642Z,-86.00
2022-11-13T19:57:27.052Z,-86.00
2022-11-13T19:58:27.585Z,-86.00
2022-11-13T19:59:28.225Z,-85.00
2022-11-13T20:00:34.549Z,-84.00
2022-11-13T20:01:52.020Z,-86.00
2022-11-13T20:02:31.495Z,-85.00
2022-11-13T20:03:29.847Z,-84.00
2022-11-13T20:04:33.095Z,-85.00
2022-11-13T20:05:31.260Z,-85.00
2022-11-13T20:06:31.332Z,-84.00
2022-11-13T20:07:32.184Z,-85.00
2022-11-13T20:08:33.117Z,-84.00
2022-11-13T20:09:35.513Z,-86.00
2022-11-13T20:10:34.131Z,-84.00
2022-11-13T20:11:35.444Z,-84.00
2022-11-13T20:12:35.649Z,-88.00
2022-11-13T20:13:35.479Z,-86.00
2022-11-13T20:13:47.213Z,-84.00
2022-11-13T20:14:47.280Z,-85.00
2022-11-13T20:15:48.126Z,-85.00
2022-11-13T20:16:48.818Z,-86.00
2022-11-13T20:17:48.724Z,-82.00
2022-11-13T20:18:48.995Z,-87.00
2022-11-13T20:19:49.932Z,-87.00
2022-11-13T20:20:54.590Z,-86.00
2022-11-13T20:21:50.686Z,-86.00
2022-11-13T20:22:51.604Z,-87.00
2022-11-13T20:23:51.692Z,-88.00
2022-11-13T20:24:54.685Z,-86.00
2022-11-13T20:26:01.008Z,-86.00
2022-11-13T20:26:56.050Z,-87.00
2022-11-13T20:27:54.937Z,-87.00
2022-11-13T20:28:54.904Z,-85.00
2022-11-13T20:29:56.769Z,-86.00
2022-11-13T20:30:56.315Z,-86.00
2022-11-13T20:31:58.767Z,-88.00
2022-11-13T20:32:57.261Z,-88.00
2022-11-13T20:34:56.670Z,-85.00
2022-11-13T20:35:46.511Z,-88.00
2022-11-13T20:36:47.066Z,-85.00
2022-11-13T20:37:48.987Z,-88.00
2022-11-13T20:38:48.034Z,-90.00
2022-11-13T20:39:48.204Z,-87.00
2022-11-13T20:40:48.271Z,-88.00
2022-11-13T20:41:50.859Z,-89.00
2022-11-13T20:42:51.542Z,-88.00
2022-11-13T20:43:50.464Z,-89.00
2022-11-13T20:44:51.377Z,-88.00
2022-11-13T20:45:54.290Z,-88.00
2022-11-13T20:46:52.139Z,-87.00
2022-11-13T20:47:12.024Z,-87.00
2022-11-13T20:48:03.404Z,-86.00
2022-11-13T20:49:11.825Z,-87.00
2022-11-13T20:50:05.351Z,-88.00
2022-11-13T20:51:09.332Z,-89.00
2022-11-13T20:52:06.839Z,-87.00
2022-11-13T20:53:10.249Z,-86.00
2022-11-13T20:54:08.830Z,-89.00
2022-11-13T20:55:10.685Z,-87.00
2022-11-13T20:56:13.558Z,-88.00
2022-11-13T20:57:10.497Z,-88.00
2022-11-13T21:01:33.432Z,-88.00
2022-11-13T21:02:33.406Z,-86.00
2022-11-13T21:03:39.925Z,-88.00
2022-11-13T21:04:32.913Z,-87.00
2022-11-13T21:05:33.733Z,-86.00
2022-11-13T21:06:25.116Z,-87.00
2022-11-13T21:07:24.577Z,-86.00
2022-11-13T21:09:26.570Z,-86.00
2022-11-13T21:10:27.131Z,-86.00
2022-11-13T21:11:30.351Z,-86.00
2022-11-13T21:12:34.971Z,-87.00
2022-11-13T21:13:35.933Z,-87.00
2022-11-13T21:14:32.841Z,-87.00
2022-11-13T21:15:30.120Z,-88.00
2022-11-13T21:16:30.556Z,-87.00
2022-11-13T21:17:31.888Z,-87.00
2022-11-13T21:18:33.299Z,-87.00
2022-11-13T21:19:31.888Z,-87.00
2022-11-13T21:20:32.312Z,-87.00
2022-11-13T21:21:35.480Z,-88.00
2022-11-13T21:22:34.043Z,-86.00
2022-11-13T21:22:51.740Z,-88.00
2022-11-13T21:23:48.986Z,-86.00
2022-11-13T21:24:57.591Z,-87.00
2022-11-13T21:25:49.904Z,-87.00
2022-11-13T21:26:50.231Z,-86.00
2022-11-13T21:27:52.096Z,-87.00
2022-11-13T21:28:54.322Z,-87.00
2022-11-13T21:29:52.618Z,-86.00
2022-11-13T21:31:39.208Z,-84.00
2022-11-13T21:32:40.130Z,-85.00
2022-11-13T21:33:40.699Z,-87.00
2022-11-13T21:34:45.959Z,-87.00
2022-11-13T21:35:42.488Z,-85.00
2022-11-13T21:36:44.405Z,-87.00
2022-11-13T21:37:44.223Z,-87.00
2022-11-13T21:38:45.199Z,-85.00
2022-11-13T21:39:48.557Z,-86.00
2022-11-13T21:40:49.387Z,-86.00
2022-11-13T21:41:10.238Z,-87.00
2022-11-13T21:42:08.346Z,-87.00
2022-11-13T21:43:08.495Z,-87.00
2022-11-13T21:44:09.301Z,-86.00
2022-11-13T21:45:09.699Z,-87.00
2022-11-13T21:48:39.486Z,-88.00
2022-11-13T21:49:42.933Z,-88.00
2022-11-13T21:50:43.095Z,-87.00
2022-11-13T21:51:43.225Z,-87.00
2022-11-13T21:53:31.887Z,-85.00
2022-11-13T21:54:29.559Z,-87.00
2022-11-13T21:55:30.414Z,-87.00
2022-11-13T21:56:31.050Z,-87.00
2022-11-13T21:57:33.814Z,-86.00
2022-11-13T21:58:34.665Z,-84.00
2022-11-13T21:59:33.329Z,-86.00
2022-11-13T22:00:34.160Z,-86.00
2022-11-13T22:03:05.637Z,-85.00
2022-11-13T22:04:30.305Z,-85.00
2022-11-13T22:05:14.017Z,-87.00
2022-11-13T22:06:15.307Z,-86.00
2022-11-13T22:07:15.471Z,-86.00
2022-11-13T22:08:08.310Z,-86.00
2022-11-13T22:09:11.357Z,-86.00
2022-11-13T22:10:09.938Z,-85.00
2022-11-13T22:11:12.941Z,-86.00
2022-11-13T22:12:11.491Z,-86.00
2022-11-13T22:13:11.485Z,-85.00
2022-11-13T22:14:11.913Z,-87.00
2022-11-13T22:15:20.168Z,-86.00
2022-11-13T22:16:13.383Z,-89.00
2022-11-13T22:17:13.734Z,-88.00
2022-11-13T22:18:13.701Z,-87.00
2022-11-13T22:19:14.034Z,-87.00
2022-11-13T22:19:40.078Z,-87.00
2022-11-13T22:20:37.366Z,-88.00
2022-11-13T22:21:39.853Z,-86.00
2022-11-13T22:22:38.673Z,-85.00
2022-11-13T22:23:39.624Z,-85.00
2022-11-13T22:24:42.039Z,-86.00
2022-11-13T22:25:40.575Z,-88.00
2022-11-13T22:26:42.872Z,-87.00
2022-11-13T22:27:46.229Z,-87.00
2022-11-13T22:28:50.141Z,-86.00
2022-11-13T22:29:45.155Z,-88.00
2022-11-13T22:30:43.614Z,-87.00
2022-11-13T22:31:43.955Z,-88.00
2022-11-13T22:32:44.266Z,-86.00
2022-11-13T22:33:48.284Z,-85.00
2022-11-13T22:34:45.910Z,-86.00
2022-11-13T22:35:48.165Z,-86.00
2022-11-13T22:36:48.527Z,-86.00
2022-11-13T22:37:46.689Z,-86.00
2022-11-13T22:38:47.377Z,-86.00
2022-11-13T22:39:49.806Z,-86.00
2022-11-13T22:40:47.787Z,-86.00
2022-11-13T22:41:43.605Z,-85.00
2022-11-13T22:42:44.063Z,-85.00
2022-11-13T22:43:44.183Z,-85.00
2022-11-13T22:44:55.878Z,-87.00
2022-11-13T22:45:46.942Z,-85.00
2022-11-13T22:46:45.664Z,-85.00
2022-11-13T22:47:47.860Z,-84.00
2022-11-13T22:48:46.680Z,-87.00
2022-11-13T22:49:46.809Z,-85.00
2022-11-13T22:50:48.754Z,-85.00
2022-11-13T22:51:48.125Z,-85.00
2022-11-13T22:52:48.599Z,-87.00
2022-11-13T22:53:49.059Z,-89.00
2022-11-13T22:54:49.730Z,-88.00
2022-11-13T22:55:52.150Z,-86.00
2022-11-13T22:56:50.259Z,-87.00
2022-11-13T22:57:50.739Z,-87.00
2022-11-13T22:58:52.750Z,-86.00
2022-11-13T22:59:51.776Z,-86.00
2022-11-13T23:00:52.245Z,-87.00
2022-11-13T23:01:53.160Z,-85.00
2022-11-13T23:02:53.689Z,-86.00
2022-11-13T23:03:55.335Z,-86.00
2022-11-13T23:04:54.820Z,-87.00
2022-11-13T23:05:55.780Z,-86.00
2022-11-13T23:06:56.141Z,-87.00
2022-11-13T23:07:06.263Z,-85.00
2022-11-13T23:08:06.831Z,-87.00
2022-11-13T23:09:08.625Z,-86.00
2022-11-13T23:10:08.684Z,-87.00
2022-11-13T23:11:08.714Z,-85.00
2022-11-13T23:12:08.876Z,-87.00
2022-11-13T23:13:09.776Z,-85.00
2022-11-13T23:14:10.183Z,-87.00
2022-11-13T23:15:10.563Z,-88.00
2022-11-13T23:16:12.338Z,-87.00
2022-11-13T23:17:11.565Z,-87.00
2022-11-13T23:18:11.934Z,-86.00
2022-11-13T23:19:12.581Z,-85.00
2022-11-13T23:20:12.924Z,-85.00
2022-11-13T23:21:13.410Z,-86.00
2022-11-13T23:22:13.854Z,-86.00
2022-11-13T23:23:14.611Z,-87.00
2022-11-13T23:24:15.470Z,-86.00
2022-11-13T23:25:16.450Z,-87.00
2022-11-13T23:26:15.956Z,-86.00
2022-11-13T23:27:16.798Z,-84.00
2022-11-13T23:28:17.111Z,-86.00
2022-11-13T23:29:18.975Z,-86.00
2022-11-13T23:30:18.330Z,-87.00
2022-11-13T23:31:20.277Z,-85.00
2022-11-13T23:31:29.039Z,-87.00
2022-11-13T23:32:29.316Z,-87.00
2022-11-13T23:33:30.708Z,-85.00
2022-11-13T23:34:53.155Z,-82.00
2022-11-13T23:35:31.056Z,-84.00
2022-11-13T23:36:32.131Z,-88.00
2022-11-13T23:37:31.944Z,-85.00
2022-11-13T23:38:32.970Z,-88.00
2022-11-13T23:39:33.134Z,-87.00
2022-11-13T23:40:34.547Z,-87.00